KEED/EED METAR and TAF weather

Enter ICAO airport designator
Station Type Date Time Source
KEED METAR 2020/12/05 05:56 UTC NOAA

KEED 050556Z AUTO 30008KT 10SM CLR 10/M18 A3022 RMK AO2 SLP225 T01001183 10167 20083 53014 $


Station Type Date Time Source
KEED Decoded METAR 2020/12/05 05:56 UTC NOAA

NEEDLES AIRPORT, CA, United States (KEED) 34-46N 114-37W
Dec 05, 2020 - 12:56 AM EST / 2020.12.05 0556 UTC
Wind: from the WNW (300 degrees) at 9 MPH (8 KT):0
Visibility: 10 mile(s):0
Sky conditions: clear
Temperature: 50.0 F (10.0 C)
Dew Point: -0.9 F (-18.3 C)
Relative Humidity: 11%
Pressure (altimeter): 30.22 in. Hg (1023 hPa)
Pressure tendency: 0.04 inches (1.4 hPa) higher than three hours ago
ob: KEED 050556Z AUTO 30008KT 10SM CLR 10/M18 A3022 RMK AO2 SLP225 T01001183 10167 20083 53014
cycle: 6

Station Type Date Time Source
KEED TAF 2020/12/05 06:28 UTC NOAA

TAF KEED 050525Z 0506/0606 VRB06KT P6SM SKC
FM051900 35007KT P6SM FEW250
FM060200 24005KT P6SM FEW250

Example: see airport list